Latest Weather Observations for Broome

IDW60801

Issued at 3:33 am WST Wednesday 13 November 2019 (issued every 10 minutes, with the page automatically refreshed every 10 minutes)

About weather observations | Map of weather stations | Latest weather observations for WA | Other Formats
Station Details ID: 003003 Name: BROOME AIRPORT Lat: -17.95 Lon: 122.24 Height: 7.42 m
Data from the previous 72 hours. | See also: Recent months at Broome
Date/Time
WST
Temp
°C
App
Temp
°C
Dew
Point
°C
Rel
Hum
%
Delta-T
°C
Wind Press
QNH
hPa
Press
MSL
hPa
Rain since
9am
mm
Dir  Spd
km/h
Gust
km/h
Spd
kts
Gust
kts
13/03:30am 27.4 31.5 24.5 84 2.0 WNW 11 15 6 8 1010.1 1010.0 0.0
13/03:00am 27.6 31.8 24.7 84 2.0 W 11 15 6 8 1009.9 1009.8 0.0
13/02:30am 27.6 32.0 25.0 86 1.8 W 11 17 6 9 1009.8 1009.7 0.0
13/02:00am 27.6 31.8 25.3 87 1.6 WNW 13 20 7 11 1010.0 1009.9 0.0
13/01:30am 27.6 31.2 25.0 86 1.8 WNW 15 20 8 11 1009.9 1009.8 0.0
13/01:00am 27.7 31.5 25.3 87 1.7 W 15 20 8 11 1010.3 1010.2 0.0
13/12:30am 27.6 31.8 25.3 87 1.6 WNW 13 20 7 11 1010.6 1010.5 0.0
13/12:00am 27.8 31.7 25.4 87 1.7 W 15 20 8 11 1011.1 1011.0 0.0
 
Date/Time
WST
Temp
°C
App
Temp
°C
Dew
Point
°C
Rel
Hum
%
Delta-T
°C
Wind Press
QNH
hPa
Press
MSL
hPa
Rain since
9am
mm
Dir  Spd
km/h
Gust
km/h
Spd
kts
Gust
kts
12/11:30pm 27.7 31.5 25.3 87 1.7 WNW 15 20 8 11 1011.2 1011.1 0.0
12/11:00pm 27.8 31.9 25.2 86 1.8 WNW 13 19 7 10 1011.6 1011.5 0.0
12/10:30pm 27.9 31.3 25.2 85 1.9 WNW 17 22 9 12 1011.9 1011.8 0.0
12/10:00pm 27.9 31.7 25.3 86 1.8 WNW 15 22 8 12 1011.9 1011.8 0.0
12/09:30pm 28.0 31.8 25.3 85 1.9 NW 15 20 8 11 1011.8 1011.7 0.0
12/09:00pm 28.1 31.3 25.0 83 2.2 WNW 17 24 9 13 1011.6 1011.5 0.0
12/08:30pm 28.2 32.6 25.1 83 2.2 NW 11 15 6 8 1011.7 1011.6 0.0
12/08:00pm 28.4 31.8 24.7 80 2.6 NW 15 26 8 14 1011.3 1011.2 0.0
12/07:30pm 28.5 30.9 24.3 78 2.9 WNW 19 28 10 15 1010.9 1010.8 0.0
12/07:00pm 28.6 30.8 24.0 76 3.2 WNW 19 28 10 15 1010.4 1010.3 0.0
12/06:30pm 28.7 30.9 23.9 75 3.3 WNW 19 28 10 15 1010.0 1009.9 0.0
12/06:00pm 28.9 30.8 23.8 74 3.5 WNW 20 26 11 14 1009.8 1009.7 0.0
12/05:30pm 29.6 31.5 23.7 70 4.1 NW 20 28 11 15 1009.9 1009.8 0.0
12/05:00pm 30.2 31.7 23.7 68 4.5 NW 22 33 12 18 1009.7 1009.6 0.0
12/04:30pm 30.4 31.1 23.6 67 4.7 NW 26 35 14 19 1009.7 1009.6 0.0
12/04:00pm 31.1 31.8 23.6 64 5.2 NW 26 35 14 19 1009.5 1009.4 0.0
12/03:30pm 31.1 31.8 23.6 64 5.2 NW 26 37 14 20 1009.4 1009.3 0.0
12/03:00pm 31.3 32.2 24.0 65 5.1 NW 26 35 14 19 1009.6 1009.5 0.0
12/02:30pm 31.2 31.7 23.9 65 5.1 NW 28 37 15 20 1009.9 1009.8 0.0
12/02:00pm 31.4 32.3 23.4 62 5.5 NW 24 35 13 19 1010.0 1009.9 0.0
12/01:30pm 32.0 32.4 23.8 62 5.7 NW 28 37 15 20 1010.3 1010.2 0.0
12/01:00pm 31.8 32.4 22.8 59 6.2 NW 24 32 13 17 1010.7 1010.6 0.0
12/12:30pm 31.9 31.9 22.4 57 6.5 NW 26 35 14 19 1011.0 1010.9 0.0
12/12:00pm 32.2 31.8 21.6 53 7.2 NW 26 33 14 18 1011.1 1011.0 0.0
12/11:30am 32.5 32.5 21.7 53 7.3 NW 24 32 13 17 1011.2 1011.1 0.0
12/11:00am 31.8 32.3 21.2 53 7.1 NW 20 28 11 15 1011.5 1011.4 0.0
12/10:30am 31.4 32.3 21.6 56 6.6 NW 19 26 10 14 1011.9 1011.8 0.0
12/10:00am 32.1 33.6 21.3 53 7.3 NW 15 22 8 12 1012.0 1011.9 0.0
12/09:30am 30.6 32.5 22.7 62 5.4 NW 17 26 9 14 1012.1 1012.0 0.0
12/09:00am 30.5 33.2 22.9 64 5.2 WNW 13 22 7 12 1012.0 1011.9 0.0
12/08:30am 29.9 32.3 22.9 66 4.8 NW 15 22 8 12 1011.8 1011.7 0.0
12/08:00am 30.0 32.4 23.0 66 4.8 WNW 15 20 8 11 1011.6 1011.5 0.0
12/07:30am 29.6 31.9 23.5 69 4.2 W 17 24 9 13 1011.3 1011.2 0.0
12/07:00am 29.2 31.5 23.5 71 3.9 W 17 22 9 12 1011.0 1010.9 0.0
12/06:30am 29.0 31.2 23.3 71 3.9 W 17 22 9 12 1010.7 1010.6 0.0
12/06:00am 28.4 31.3 23.8 76 3.2 W 15 19 8 10 1010.3 1010.2 0.0
12/05:30am 27.8 31.3 23.6 78 2.9 W 11 17 6 9 1010.0 1009.9 0.0
12/05:00am 28.0 31.0 23.3 75 3.2 W 13 20 7 11 1009.8 1009.7 0.0
12/04:30am 28.0 31.1 23.6 77 3.0 W 13 19 7 10 1009.7 1009.6 0.0
12/04:00am 28.0 31.3 23.8 78 2.9 W 13 20 7 11 1009.4 1009.3 0.0
12/03:30am 27.9 30.5 24.0 79 2.7 W 17 24 9 13 1009.1 1009.0 0.0
12/03:00am 27.8 30.6 24.3 81 2.4 WNW 17 24 9 13 1008.5 1008.4 0.0
12/02:38am 27.8 30.0 24.3 81 2.4 WNW 20 26 11 14 1008.3 1008.2 0.0
12/02:30am 27.8 30.2 24.3 81 2.4 WNW 19 26 10 14 1008.3 1008.2 0.0
12/02:08am 27.7 30.6 24.5 83 2.2 WNW 17 24 9 13 1008.2 1008.1 0.0
12/02:03am 27.7 30.6 24.4 82 2.3 WNW 17 24 9 13 1008.2 1008.1 0.0
12/02:00am 27.7 30.6 24.5 83 2.2 WNW 17 26 9 14 1008.2 1008.1 0.0
12/01:49am 27.8 30.7 24.5 82 2.3 WNW 17 24 9 13 1008.3 1008.2 0.0
12/01:30am 27.7 30.6 24.5 83 2.2 WNW 17 28 9 15 1008.4 1008.3 0.0
12/01:00am 27.8 30.3 24.5 82 2.3 NW 19 26 10 14 1008.6 1008.5 0.0
12/12:30am 27.8 31.0 24.9 84 2.0 NW 17 24 9 13 1008.9 1008.8 0.0
12/12:00am 27.8 30.7 25.1 85 1.9 NW 19 30 10 16 1009.1 1009.0 0.0
 
Date/Time
WST
Temp
°C
App
Temp
°C
Dew
Point
°C
Rel
Hum
%
Delta-T
°C
Wind Press
QNH
hPa
Press
MSL
hPa
Rain since
9am
mm
Dir  Spd
km/h
Gust
km/h
Spd
kts
Gust
kts
11/11:30pm 28.0 31.4 25.2 85 2.0 NW 17 22 9 12 1009.4 1009.3 0.0
11/11:00pm 27.9 31.5 25.6 87 1.6 NW 17 24 9 13 1009.6 1009.5 0.0
11/10:30pm 27.9 31.9 25.6 87 1.6 NW 15 24 8 13 1009.9 1009.8 0.0
11/10:00pm 28.0 31.8 25.3 85 1.9 NW 15 22 8 12 1009.9 1009.8 0.0
11/09:30pm 27.9 32.0 25.2 85 1.9 NNW 13 19 7 10 1009.8 1009.7 0.0
11/09:00pm 28.1 32.0 24.8 82 2.3 NW 13 20 7 11 1009.6 1009.5 0.0
11/08:30pm 28.1 31.2 24.8 82 2.3 NW 17 20 9 11 1009.4 1009.3 0.0
11/08:00pm 28.3 31.5 24.4 79 2.7 NW 15 20 8 11 1009.2 1009.1 0.0
11/07:30pm 28.4 31.1 24.1 77 3.0 NNW 17 24 9 13 1009.0 1008.9 0.0
11/07:00pm 28.5 31.3 23.7 75 3.3 NNW 15 22 8 12 1009.0 1008.9 0.0
11/06:30pm 28.8 31.1 23.4 72 3.7 NNW 17 24 9 13 1008.5 1008.4 0.0
11/06:00pm 29.1 31.5 23.6 72 3.8 NNW 17 24 9 13 1008.3 1008.2 0.0
11/05:30pm 29.9 31.6 23.4 68 4.5 NNW 20 30 11 16 1008.3 1008.2 0.0
11/05:00pm 30.4 31.8 22.8 64 5.2 NNW 20 30 11 16 1008.2 1008.1 0.0
11/04:30pm 31.4 31.7 22.3 58 6.2 NNW 24 33 13 18 1008.0 1007.9 0.0
11/04:00pm 31.3 31.0 21.9 57 6.4 NNW 26 33 14 18 1008.0 1007.9 0.0
11/03:30pm 31.9 31.8 22.2 56 6.6 NNW 26 35 14 19 1008.0 1007.9 0.0
11/03:00pm 31.6 30.7 22.2 57 6.4 NW 30 37 16 20 1008.1 1008.0 0.0
11/02:30pm 32.6 32.0 22.0 53 7.2 NW 28 39 15 21 1008.4 1008.3 0.0
11/02:00pm 33.1 31.9 20.9 48 8.2 NW 28 37 15 20 1008.8 1008.7 0.0
11/01:30pm 33.1 32.6 20.7 48 8.3 NW 24 35 13 19 1009.1 1009.0 0.0
11/01:00pm 33.7 32.3 18.7 41 9.8 NW 24 33 13 18 1009.5 1009.4 0.0
11/12:30pm 33.4 32.3 20.2 46 8.8 NW 26 33 14 18 1009.9 1009.8 0.0
11/12:00pm 32.9 32.2 19.6 45 8.8 NW 22 30 12 16 1010.1 1010.0 0.0
11/11:30am 32.8 32.8 20.9 49 8.0 NW 22 32 12 17 1010.4 1010.3 0.0
11/11:00am 33.0 33.8 22.5 54 7.2 NW 22 32 12 17 1010.7 1010.6 0.0
11/10:30am 31.7 33.1 23.5 62 5.7 NW 22 30 12 16 1010.9 1010.8 0.0
11/10:00am 30.8 31.9 23.1 63 5.3 NW 22 30 12 16 1011.1 1011.0 0.0
11/09:30am 30.5 32.5 23.6 66 4.8 NW 19 26 10 14 1011.6 1011.5 0.0
11/09:00am 30.5 32.1 22.8 63 5.3 WNW 19 26 10 14 1011.4 1011.3 0.0
11/08:30am 30.6 32.8 23.3 65 5.0 NW 17 26 9 14 1011.3 1011.2 0.0
11/08:00am 29.7 32.3 23.3 68 4.4 WNW 15 20 8 11 1011.3 1011.2 0.0
11/07:30am 29.3 31.6 23.5 71 4.0 NW 17 24 9 13 1010.9 1010.8 0.0
11/07:00am 29.8 31.9 23.7 70 4.2 NW 19 28 10 15 1010.3 1010.2 0.0
11/06:30am 28.9 31.5 24.0 75 3.4 NW 17 22 9 12 1010.2 1010.1 0.0
11/06:00am 28.3 31.9 24.3 79 2.8 NW 13 20 7 11 1009.9 1009.8 0.0
11/05:42am 28.0 32.1 24.6 82 2.4 NW 11 13 6 7 1009.8 1009.7 0.0
11/05:30am 27.8 32.2 24.5 82 2.3 W 9 13 5 7 1009.6 1009.5 0.0
11/05:27am 27.8 32.2 24.5 82 2.3 W 9 13 5 7 1009.7 1009.6 0.0
11/05:16am 27.5 31.2 24.5 84 2.1 WNW 13 15 7 8 1009.5 1009.4 0.0
11/05:04am 27.4 31.6 24.7 85 1.9 NW 11 19 6 10 1009.3 1009.2 0.0
11/05:00am 27.5 31.2 24.6 84 2.0 NW 13 19 7 10 1009.2 1009.1 0.0
11/04:32am 27.5 31.8 24.9 86 1.8 NW 11 19 6 10 1009.0 1008.9 0.0
11/04:30am 27.5 31.4 24.9 86 1.8 NW 13 19 7 10 1009.0 1008.9 0.0
11/04:19am 27.5 31.5 25.1 87 1.7 NW 13 19 7 10 1008.7 1008.6 0.0
11/04:14am 27.5 31.2 25.1 87 1.7 NW 15 22 8 12 1008.7 1008.6 0.0
11/04:00am 27.3 31.8 25.2 88 1.5 NW 11 17 6 9 1008.5 1008.4 0.0
11/03:55am 27.3 32.2 25.2 88 1.5 NW 9 13 5 7 1008.6 1008.5 0.0
11/03:30am 27.3 31.4 25.2 88 1.5 NW 13 19 7 10 1008.1 1008.0 0.0
11/03:00am 27.4 31.1 25.1 87 1.6 NW 15 20 8 11 1007.7 1007.6 0.0
11/02:30am 27.5 30.3 24.9 86 1.8 NW 19 26 10 14 1007.4 1007.3 0.0
11/02:00am 27.5 31.2 25.2 87 1.6 NW 15 24 8 13 1007.7 1007.6 0.0
11/01:30am 27.5 31.6 25.2 87 1.6 NW 13 20 7 11 1007.9 1007.8 0.0
11/01:00am 27.7 31.5 25.3 87 1.7 NW 15 22 8 12 1007.9 1007.8 0.0
11/12:30am 27.6 31.5 25.5 88 1.5 NW 15 20 8 11 1008.2 1008.1 0.0
11/12:00am 27.8 32.2 25.7 88 1.5 NNW 13 20 7 11 1008.5 1008.4 0.0
 
Date/Time
WST
Temp
°C
App
Temp
°C
Dew
Point
°C
Rel
Hum
%
Delta-T
°C
Wind Press
QNH
hPa
Press
MSL
hPa
Rain since
9am
mm
Dir  Spd
km/h
Gust
km/h
Spd
kts
Gust
kts
10/11:30pm 26.8 32.0 25.1 90 1.2 N 7 9 4 5 1008.9 1008.8 0.0
10/11:00pm 27.9 32.8 25.8 88 1.5 NNW 11 15 6 8 1008.9 1008.8 0.0
10/10:30pm 28.0 32.7 25.6 87 1.7 NW 11 17 6 9 1009.1 1009.0 0.0
10/10:00pm 28.1 33.1 25.4 85 1.9 NW 9 13 5 7 1009.0 1008.9 0.0
10/09:30pm 28.2 32.8 25.4 85 2.0 NW 11 17 6 9 1008.9 1008.8 0.0
10/09:00pm 28.3 33.0 25.5 85 2.0 NW 11 13 6 7 1008.9 1008.8 0.0
10/08:30pm 28.5 33.5 25.4 83 2.2 WNW 9 13 5 7 1008.7 1008.6 0.0
10/08:00pm 28.4 33.3 25.3 83 2.2 NW 9 13 5 7 1008.4 1008.3 0.0
10/07:30pm 28.6 33.5 25.2 82 2.4 NW 9 13 5 7 1008.1 1008.0 0.0
10/07:00pm 28.8 33.7 25.2 81 2.5 NNW 9 13 5 7 1007.7 1007.6 0.0
10/06:30pm 29.0 33.5 25.2 80 2.7 NW 11 15 6 8 1007.2 1007.1 0.0
10/06:00pm 29.3 33.1 25.3 79 2.8 NW 15 22 8 12 1007.0 1006.9 0.0
10/05:30pm 30.0 33.0 25.2 75 3.4 NW 19 26 10 14 1006.7 1006.6 0.0
10/05:00pm 30.4 32.8 25.2 74 3.7 NW 22 28 12 15 1006.4 1006.3 0.0
10/04:30pm 30.7 33.3 24.9 71 4.1 NW 20 30 11 16 1006.2 1006.1 0.0
10/04:00pm 31.5 33.1 25.1 69 4.5 NW 26 33 14 18 1006.2 1006.1 0.0
10/03:30pm 31.8 33.8 25.2 68 4.7 WNW 24 35 13 19 1006.4 1006.3 0.0
10/03:00pm 31.9 33.4 25.0 67 4.9 NW 26 33 14 18 1006.7 1006.6 0.0
10/02:30pm 32.5 33.5 24.7 63 5.5 NW 28 35 15 19 1007.0 1006.9 0.0
10/02:00pm 32.5 33.9 24.2 61 5.8 WNW 24 33 13 18 1006.9 1006.8 0.0
10/01:30pm 31.9 32.9 24.8 66 5.0 WNW 28 35 15 19 1007.5 1007.4 0.0
10/01:00pm 32.5 34.0 24.4 62 5.7 WNW 24 33 13 18 1007.8 1007.7 0.0
10/12:30pm 32.4 33.5 24.4 62 5.6 WNW 26 33 14 18 1008.3 1008.2 0.0
10/12:00pm 32.1 33.0 23.9 62 5.7 WNW 26 32 14 17 1008.7 1008.6 0.0
10/11:30am 32.9 34.6 24.0 59 6.2 WNW 22 30 12 16 1009.2 1009.1 0.0
10/11:00am 32.4 33.7 24.1 61 5.8 NW 24 32 13 17 1009.7 1009.6 0.0
10/10:30am 31.9 33.7 23.2 60 6.0 NW 19 26 10 14 1010.1 1010.0 0.0
10/10:00am 32.6 35.2 24.0 60 6.0 WNW 17 24 9 13 1010.4 1010.3 0.0
10/09:30am 33.3 34.3 21.1 48 8.2 NW 17 22 9 12 1010.7 1010.6 0.0
10/09:00am 32.6 34.0 21.0 50 7.8 WNW 15 20 8 11 1010.8 1010.7 0.0
10/08:30am 32.3 34.4 21.7 53 7.2 NW 13 17 7 9 1010.8 1010.7 0.0
10/08:00am 33.2 33.9 17.0 38 10.3 W 9 15 5 8 1010.8 1010.7 0.0
10/07:30am 31.2 32.2 16.4 41 9.3 SW 6 9 3 5 1010.6 1010.5 0.0
10/07:00am 28.2 33.0 22.8 72 3.7 NE 2 6 1 3 1010.6 1010.5 0.0
10/06:30am 25.2 29.5 22.7 86 1.7 N 4 6 2 3 1010.5 1010.4 0.0
10/06:00am 22.2 25.5 21.4 95 0.5 NNE 6 9 3 5 1010.3 1010.2 0.0
10/05:32am 20.9 24.4 20.3 96 0.4 N 2 6 1 3 1010.1 1010.0 0.0
10/05:30am 20.8 24.1 20.0 95 0.5 N 2 6 1 3 1010.1 1010.0 0.0
10/05:00am 21.1 25.1 20.5 96 0.4 CALM 0 0 0 0 1010.0 1009.9 0.0
10/04:46am 21.9 25.9 21.3 96 0.4 N 2 6 1 3 1010.0 1009.9 0.0
10/04:30am 21.7 25.9 20.9 95 0.5 CALM 0 0 0 0 1009.9 1009.8 0.0
10/04:00am 22.2 26.5 21.1 93 0.7 CALM 0 6 0 3 1009.7 1009.6 0.0

Other formats

Comma delimited format used in spreadsheet applications
http://www.bom.gov.au/fwo/IDW60801/IDW60801.94203.axf

JavaScript Object Notation format (JSON) in row-major order
http://www.bom.gov.au/fwo/IDW60801/IDW60801.94203.json

Data quality

Most of these data are generated automatically and are frequently updated. Quality checks on data are not normally performed. It is possible for incorrect values to appear. Refer to information at About Latest Weather Observations and please check the disclaimer before using these data.